Slidell, Louisiana
Current Conditions -  °F | °C
As of 10:08 PM on Friday 19 Dec 2014 (Local Time) from KASD Reporting Station
Light Rain Light Rain  
Wind Chill: 45°   Ceiling: 600
Heat Index: 49°   Visibility: 4mi
Dew Point: 46°   Wind: 8mph
Humidity: 90%   Direction: 40°NE
Pressure: 30.09"   Gusts: NA
Location:  30.28°N, 89.78°W
Report Text: KASD 200408Z AUTO 04007KT 4SM -RA BR BKN006 OVC020 09/08 A3009 RMK AO2 CIG 004V009 P0002 T00940078
Loading
Personal Weather Stations






























Interactive Weather Map New forecast layout! Learn more

10-Day Weather Forecast

Advertisements
Track Severe Weather on mobile